Time;durP1;ratioP1;P1;durP2;ratioP2;P2;SDS_P1;SDS_P2;PMS_P1;PMS_P2;Temp;Humidity;BMP_temperature;BMP_pressure;BME280_temperature;BME280_humidity;BME280_pressure;Samples;Min_cycle;Max_cycle;Signal;HPM_P1;HPM_P2
2021/10/30 00:00:11;;;;;;;;;;;8.70;81.90;;;;;;5055944;28;20015;-66
2021/10/30 00:02:37;;;;;;;;;;;8.70;82.00;;;;;;5054838;28;20395;-66
2021/10/30 00:05:03;;;;;;;;;;;8.70;82.00;;;;;;5057899;28;19916;-66
2021/10/30 00:07:28;;;;;;;;;;;8.80;82.20;;;;;;5058170;28;19917;-66
2021/10/30 00:09:54;;;;;;;;;;;8.70;82.10;;;;;;5058032;28;20063;-66
2021/10/30 00:12:19;;;;;;;;;;;8.70;82.00;;;;;;5056300;28;19919;-66
2021/10/30 00:14:45;;;;;;;;;;;8.70;82.10;;;;;;5053987;28;20456;-66
2021/10/30 00:17:10;;;;;;;;;;;8.70;82.10;;;;;;5057474;28;19917;-66
2021/10/30 00:19:36;;;;;;;;;;;8.70;82.20;;;;;;5059008;28;19993;-66
2021/10/30 00:22:02;;;;;;;;;;;8.60;82.00;;;;;;5054055;28;19912;-65
2021/10/30 00:24:31;;;;;;;;;;;8.60;82.00;;;;;;5051677;28;19916;-66
2021/10/30 00:26:56;;;;;;;;;;;8.50;82.00;;;;;;5052255;28;19912;-66
2021/10/30 00:29:22;;;;;;;;;;;8.50;82.20;;;;;;5053605;28;19916;-66
2021/10/30 00:31:48;;;;;;;;;;;8.40;82.20;;;;;;5052693;28;19919;-66
2021/10/30 00:34:13;;;;;;;;;;;8.40;82.20;;;;;;5051759;28;19912;-65
2021/10/30 00:36:39;;;;;;;;;;;8.30;82.20;;;;;;5053806;28;19920;-66
2021/10/30 00:39:04;;;;;;;;;;;8.20;82.20;;;;;;5051955;28;19986;-66
2021/10/30 00:41:30;;;;;;;;;;;8.30;82.30;;;;;;5052417;28;19913;-65
2021/10/30 00:43:55;;;;;;;;;;;8.20;82.20;;;;;;5056471;28;20686;-66
2021/10/30 00:46:21;;;;;;;;;;;8.20;82.20;;;;;;5050869;28;19920;-66
2021/10/30 00:48:46;;;;;;;;;;;8.10;82.10;;;;;;5051112;28;19916;-66
2021/10/30 00:51:13;;;;;;;;;;;8.10;82.20;;;;;;5052450;28;19916;-66
2021/10/30 00:53:39;;;;;;;;;;;8.00;82.20;;;;;;5051889;28;19955;-66
2021/10/30 00:56:05;;;;;;;;;;;8.00;82.20;;;;;;5050374;28;20396;-66
2021/10/30 00:58:35;;;;;;;;;;;7.90;82.20;;;;;;5050533;28;19928;-65
2021/10/30 01:01:01;;;;;;;;;;;7.90;82.20;;;;;;5053163;28;19909;-65
2021/10/30 01:03:26;;;;;;;;;;;7.90;82.20;;;;;;5052360;28;19916;-64
2021/10/30 01:05:52;;;;;;;;;;;7.90;82.40;;;;;;5053259;28;19921;-66
2021/10/30 01:08:18;;;;;;;;;;;7.90;82.60;;;;;;5054710;28;19920;-66
2021/10/30 01:10:45;;;;;;;;;;;7.90;82.50;;;;;;5048943;28;20037;-65
2021/10/30 01:13:11;;;;;;;;;;;7.90;82.40;;;;;;5054045;28;19913;-65
2021/10/30 01:15:36;;;;;;;;;;;7.80;82.30;;;;;;5052256;28;20029;-66
2021/10/30 01:18:03;;;;;;;;;;;7.80;82.30;;;;;;5054574;28;19961;-66
2021/10/30 01:20:29;;;;;;;;;;;7.70;82.20;;;;;;5056593;28;19913;-66
2021/10/30 01:22:59;;;;;;;;;;;7.70;82.30;;;;;;5051953;28;19913;-65
2021/10/30 01:25:24;;;;;;;;;;;7.80;82.60;;;;;;5054160;28;19921;-66
2021/10/30 01:27:51;;;;;;;;;;;7.70;82.60;;;;;;5055213;28;20415;-66
2021/10/30 01:30:17;;;;;;;;;;;7.80;82.70;;;;;;5051191;28;20372;-65
2021/10/30 01:33:04;;;;;;;;;;;7.80;82.60;;;;;;5052616;28;19921;-65
2021/10/30 01:35:31;;;;;;;;;;;7.90;82.60;;;;;;5051353;28;19999;-66
2021/10/30 01:37:57;;;;;;;;;;;7.90;82.60;;;;;;5052508;28;19917;-66
2021/10/30 01:40:23;;;;;;;;;;;7.90;82.50;;;;;;5054317;28;20483;-66
2021/10/30 01:42:52;;;;;;;;;;;7.90;82.40;;;;;;5053028;28;19913;-64
2021/10/30 01:45:17;;;;;;;;;;;7.90;82.40;;;;;;5055131;28;19912;-66
2021/10/30 01:47:43;;;;;;;;;;;7.90;82.40;;;;;;5052473;28;19924;-66
2021/10/30 01:50:12;;;;;;;;;;;7.90;82.40;;;;;;5055036;28;19920;-65
2021/10/30 01:52:37;;;;;;;;;;;7.90;82.20;;;;;;5055635;28;19918;-66
2021/10/30 01:55:06;;;;;;;;;;;7.90;82.20;;;;;;5054752;28;19917;-66
2021/10/30 01:57:32;;;;;;;;;;;7.90;83.00;;;;;;5054912;28;19920;-65
2021/10/30 01:59:57;;;;;;;;;;;7.90;82.20;;;;;;5055349;28;19912;-66
2021/10/30 02:02:23;;;;;;;;;;;7.90;82.30;;;;;;5054675;28;19927;-67
2021/10/30 02:04:48;;;;;;;;;;;7.80;82.40;;;;;;5050861;28;19959;-66
2021/10/30 02:07:14;;;;;;;;;;;7.90;82.50;;;;;;5054063;28;19923;-66
2021/10/30 02:09:39;;;;;;;;;;;7.90;82.60;;;;;;5053627;28;19965;-66
2021/10/30 02:12:05;;;;;;;;;;;7.90;82.60;;;;;;5051823;28;19928;-65
2021/10/30 02:14:30;;;;;;;;;;;8.00;82.60;;;;;;5053313;28;20019;-66
2021/10/30 02:16:56;;;;;;;;;;;8.00;82.50;;;;;;5054085;28;19933;-66
2021/10/30 02:19:21;;;;;;;;;;;8.00;82.40;;;;;;5052212;28;19997;-66
2021/10/30 02:21:47;;;;;;;;;;;7.90;82.20;;;;;;5053810;28;20357;-66
2021/10/30 02:24:13;;;;;;;;;;;7.80;82.10;;;;;;5057046;28;20003;-67
2021/10/30 02:26:38;;;;;;;;;;;7.80;82.20;;;;;;5058095;28;19922;-66
2021/10/30 02:29:04;;;;;;;;;;;7.80;82.20;;;;;;5056473;28;19920;-65
2021/10/30 02:31:29;;;;;;;;;;;7.90;82.40;;;;;;5057264;28;19947;-66
2021/10/30 02:33:55;;;;;;;;;;;7.90;82.40;;;;;;5054647;28;20422;-66
2021/10/30 02:36:20;;;;;;;;;;;7.80;82.20;;;;;;5054630;28;19921;-66
2021/10/30 02:38:46;;;;;;;;;;;7.80;82.10;;;;;;5055709;28;19924;-65
2021/10/30 02:41:12;;;;;;;;;;;7.80;82.10;;;;;;5057454;28;19982;-66
2021/10/30 02:43:38;;;;;;;;;;;7.70;82.00;;;;;;5055451;28;19912;-66
2021/10/30 02:46:03;;;;;;;;;;;7.70;82.00;;;;;;5057237;28;19913;-65
2021/10/30 02:48:29;;;;;;;;;;;7.60;82.10;;;;;;5050207;28;19920;-65
2021/10/30 02:50:54;;;;;;;;;;;7.60;82.20;;;;;;5056586;28;19921;-65
2021/10/30 02:53:20;;;;;;;;;;;7.60;82.30;;;;;;5054820;28;19916;-66
2021/10/30 02:55:45;;;;;;;;;;;7.60;82.40;;;;;;5054471;28;19923;-66
2021/10/30 02:58:11;;;;;;;;;;;7.60;82.40;;;;;;5054507;28;19963;-65
2021/10/30 03:00:36;;;;;;;;;;;7.60;82.40;;;;;;5054864;28;20015;-66
2021/10/30 03:03:03;;;;;;;;;;;7.60;82.40;;;;;;5054624;28;19952;-64
2021/10/30 03:05:28;;;;;;;;;;;7.60;82.30;;;;;;5056505;28;20656;-66
2021/10/30 03:07:54;;;;;;;;;;;7.50;82.20;;;;;;5054570;28;19970;-65
2021/10/30 03:10:19;;;;;;;;;;;7.50;82.20;;;;;;5057027;28;20003;-66
2021/10/30 03:12:45;;;;;;;;;;;7.50;82.40;;;;;;5054883;28;19921;-66
2021/10/30 03:15:11;;;;;;;;;;;7.60;82.60;;;;;;5055831;28;20364;-66
2021/10/30 03:17:37;;;;;;;;;;;7.60;82.60;;;;;;5056224;28;19962;-66
2021/10/30 03:20:02;;;;;;;;;;;7.60;82.70;;;;;;5057229;28;20577;-66
2021/10/30 03:22:28;;;;;;;;;;;7.60;82.60;;;;;;5057407;28;19916;-66
2021/10/30 03:24:53;;;;;;;;;;;7.60;82.70;;;;;;5054297;28;19920;-64
2021/10/30 03:27:19;;;;;;;;;;;7.70;82.80;;;;;;5057626;28;20398;-66
2021/10/30 03:29:44;;;;;;;;;;;7.70;82.70;;;;;;5056104;28;19994;-65
2021/10/30 03:32:10;;;;;;;;;;;7.70;82.60;;;;;;5052730;28;19958;-66
2021/10/30 03:34:35;;;;;;;;;;;7.70;82.60;;;;;;5054652;28;20053;-66
2021/10/30 03:37:01;;;;;;;;;;;7.70;82.60;;;;;;5055859;28;19973;-65
2021/10/30 03:39:26;;;;;;;;;;;7.80;82.70;;;;;;5057689;28;19913;-66
2021/10/30 03:41:52;;;;;;;;;;;7.80;82.70;;;;;;5053711;28;20284;-66
2021/10/30 03:44:18;;;;;;;;;;;7.80;82.60;;;;;;5056929;28;19927;-65
2021/10/30 03:46:43;;;;;;;;;;;7.80;82.50;;;;;;5052789;28;20060;-65
2021/10/30 03:49:09;;;;;;;;;;;7.80;82.30;;;;;;5053547;28;19916;-67
2021/10/30 03:51:34;;;;;;;;;;;7.80;82.40;;;;;;5057474;28;20368;-65
2021/10/30 03:54:00;;;;;;;;;;;7.80;82.30;;;;;;5052990;28;19919;-65
2021/10/30 03:56:25;;;;;;;;;;;7.80;82.40;;;;;;5054752;28;19920;-66
2021/10/30 03:58:51;;;;;;;;;;;7.80;82.40;;;;;;5056144;28;19938;-66
2021/10/30 04:01:16;;;;;;;;;;;7.80;82.40;;;;;;5055581;28;19916;-66
2021/10/30 04:03:42;;;;;;;;;;;7.80;82.30;;;;;;5057372;28;19916;-66
2021/10/30 04:06:07;;;;;;;;;;;7.80;82.30;;;;;;5056899;28;19962;-66
2021/10/30 04:08:33;;;;;;;;;;;7.80;82.20;;;;;;5053515;28;19927;-66
2021/10/30 04:10:59;;;;;;;;;;;7.80;82.10;;;;;;5054768;28;19913;-66
2021/10/30 04:13:24;;;;;;;;;;;7.80;82.00;;;;;;5054007;28;19916;-66
2021/10/30 04:15:50;;;;;;;;;;;7.70;82.00;;;;;;5051232;28;20410;-65
2021/10/30 04:18:16;;;;;;;;;;;7.70;81.90;;;;;;5055905;28;20403;-65
2021/10/30 04:20:41;;;;;;;;;;;7.70;82.00;;;;;;5052041;28;19946;-66
2021/10/30 04:23:07;;;;;;;;;;;7.70;82.00;;;;;;5053682;28;19920;-65
2021/10/30 04:25:32;;;;;;;;;;;7.60;82.00;;;;;;5051410;28;20006;-66
2021/10/30 04:27:58;;;;;;;;;;;7.60;82.00;;;;;;5056335;28;21961;-66
2021/10/30 04:30:23;;;;;;;;;;;7.60;82.00;;;;;;5054953;28;19927;-66
2021/10/30 04:32:49;;;;;;;;;;;7.60;82.20;;;;;;5053333;28;19920;-65
2021/10/30 04:35:15;;;;;;;;;;;7.60;82.20;;;;;;5052577;28;19916;-66
2021/10/30 04:37:40;;;;;;;;;;;7.60;82.00;;;;;;5053797;28;19923;-66
2021/10/30 04:40:07;;;;;;;;;;;7.60;82.10;;;;;;5053980;28;19916;-65
2021/10/30 04:42:32;;;;;;;;;;;7.60;82.00;;;;;;5053873;28;20525;-66
2021/10/30 04:44:58;;;;;;;;;;;7.60;82.00;;;;;;5051076;28;19935;-64
2021/10/30 04:47:24;;;;;;;;;;;7.60;82.10;;;;;;5055026;28;19913;-65
2021/10/30 04:49:50;;;;;;;;;;;7.50;82.00;;;;;;5053498;28;20579;-66
2021/10/30 04:52:16;;;;;;;;;;;7.50;82.00;;;;;;5055958;28;19916;-65
2021/10/30 04:54:42;;;;;;;;;;;7.50;82.00;;;;;;5051487;28;20935;-66
2021/10/30 04:57:08;;;;;;;;;;;7.50;81.90;;;;;;5052734;28;19962;-65
2021/10/30 04:59:33;;;;;;;;;;;7.50;81.80;;;;;;5054902;28;19919;-66
2021/10/30 05:01:59;;;;;;;;;;;7.50;81.90;;;;;;5054391;28;20445;-65
2021/10/30 05:04:25;;;;;;;;;;;7.50;81.90;;;;;;5052364;28;20011;-66
2021/10/30 05:06:50;;;;;;;;;;;7.40;81.90;;;;;;5053126;28;19999;-63
2021/10/30 05:09:16;;;;;;;;;;;7.50;81.90;;;;;;5052860;28;19916;-66
2021/10/30 05:11:41;;;;;;;;;;;7.40;82.00;;;;;;5051152;28;19913;-66
2021/10/30 05:14:07;;;;;;;;;;;7.40;82.00;;;;;;5052763;28;19917;-65
2021/10/30 05:16:32;;;;;;;;;;;7.40;81.90;;;;;;5053374;28;19913;-65
2021/10/30 05:18:58;;;;;;;;;;;7.40;82.00;;;;;;5052423;28;20303;-65
2021/10/30 05:21:23;;;;;;;;;;;7.30;81.90;;;;;;5052163;28;19944;-66
2021/10/30 05:23:49;;;;;;;;;;;7.30;82.00;;;;;;5051870;28;19930;-65
2021/10/30 05:26:14;;;;;;;;;;;7.30;82.00;;;;;;5051274;28;20143;-66
2021/10/30 05:28:40;;;;;;;;;;;7.30;82.10;;;;;;5055521;28;20352;-66
2021/10/30 05:31:06;;;;;;;;;;;7.30;82.40;;;;;;5052680;28;19967;-65
2021/10/30 05:33:31;;;;;;;;;;;7.30;82.20;;;;;;5053289;28;19920;-65
2021/10/30 05:35:57;;;;;;;;;;;7.20;82.20;;;;;;5052166;28;19983;-66
2021/10/30 05:38:22;;;;;;;;;;;7.20;82.20;;;;;;5050837;28;20334;-66
2021/10/30 05:40:48;;;;;;;;;;;7.20;82.30;;;;;;5052072;28;19927;-65
2021/10/30 05:43:14;;;;;;;;;;;7.30;82.40;;;;;;5054067;28;20426;-66
2021/10/30 05:45:40;;;;;;;;;;;7.30;82.50;;;;;;5052041;28;20041;-65
2021/10/30 05:48:07;;;;;;;;;;;7.30;82.60;;;;;;5051501;28;20303;-66
2021/10/30 05:50:33;;;;;;;;;;;7.30;82.50;;;;;;5052251;28;19916;-65
2021/10/30 05:52:59;;;;;;;;;;;7.30;82.30;;;;;;5055226;28;19919;-64
2021/10/30 05:55:24;;;;;;;;;;;7.30;83.10;;;;;;5051956;28;19912;-66
2021/10/30 05:57:50;;;;;;;;;;;7.30;82.20;;;;;;5054945;28;19931;-65
2021/10/30 06:00:16;;;;;;;;;;;7.30;82.10;;;;;;5056145;28;19967;-66
2021/10/30 06:02:41;;;;;;;;;;;7.30;82.10;;;;;;5051335;28;19971;-65
2021/10/30 06:05:07;;;;;;;;;;;7.30;82.10;;;;;;5060088;28;20050;-66
2021/10/30 06:07:33;;;;;;;;;;;7.30;82.10;;;;;;5059791;28;19921;-66
2021/10/30 06:09:59;;;;;;;;;;;7.30;82.10;;;;;;5060597;28;19989;-65
2021/10/30 06:12:25;;;;;;;;;;;7.20;82.20;;;;;;5060994;28;19917;-66
2021/10/30 06:14:50;;;;;;;;;;;7.20;82.20;;;;;;5060614;28;20440;-66
2021/10/30 06:17:16;;;;;;;;;;;7.20;82.40;;;;;;5061641;28;19951;-65
2021/10/30 06:19:41;;;;;;;;;;;7.20;82.60;;;;;;5060146;28;19912;-66
2021/10/30 06:22:07;;;;;;;;;;;7.20;82.50;;;;;;5061103;28;19947;-66
2021/10/30 06:24:33;;;;;;;;;;;7.20;82.50;;;;;;5060617;28;19929;-66
2021/10/30 06:26:59;;;;;;;;;;;7.20;82.60;;;;;;5062035;28;19912;-66
2021/10/30 06:29:25;;;;;;;;;;;7.20;82.60;;;;;;5047859;28;19921;-66
2021/10/30 06:31:50;;;;;;;;;;;7.30;82.90;;;;;;5055337;28;19931;-66
2021/10/30 06:34:16;;;;;;;;;;;7.20;82.80;;;;;;5049278;28;19961;-66
2021/10/30 06:36:41;;;;;;;;;;;7.30;83.60;;;;;;5055150;28;20632;-66
2021/10/30 06:39:07;;;;;;;;;;;7.30;82.80;;;;;;5059307;28;19917;-66
2021/10/30 06:41:33;;;;;;;;;;;7.30;82.70;;;;;;5057781;28;20458;-66
2021/10/30 06:44:00;;;;;;;;;;;7.40;83.70;;;;;;5050801;28;20296;-64
2021/10/30 06:46:26;;;;;;;;;;;7.40;82.80;;;;;;5056067;28;19920;-66
2021/10/30 06:48:55;;;;;;;;;;;7.40;82.70;;;;;;5051904;28;19938;-65
2021/10/30 06:51:22;;;;;;;;;;;7.40;82.70;;;;;;5059713;28;19924;-66
2021/10/30 06:53:47;;;;;;;;;;;7.40;82.70;;;;;;5058759;28;20391;-66
2021/10/30 06:56:13;;;;;;;;;;;7.50;82.80;;;;;;5060477;28;19912;-66
2021/10/30 06:58:38;;;;;;;;;;;7.50;82.70;;;;;;5054070;28;19920;-66
2021/10/30 07:01:04;;;;;;;;;;;7.50;82.70;;;;;;5055739;28;19923;-66
2021/10/30 07:03:29;;;;;;;;;;;7.60;82.70;;;;;;5056040;28;19983;-65
2021/10/30 07:05:55;;;;;;;;;;;7.60;82.70;;;;;;5057227;28;19936;-66
2021/10/30 07:08:20;;;;;;;;;;;7.50;82.60;;;;;;5057737;28;19919;-66
2021/10/30 07:10:46;;;;;;;;;;;7.60;82.60;;;;;;5054872;28;20371;-66
2021/10/30 07:13:12;;;;;;;;;;;7.60;82.60;;;;;;5057338;28;19920;-66
2021/10/30 07:15:37;;;;;;;;;;;7.60;82.60;;;;;;5056311;28;19920;-66
2021/10/30 07:18:03;;;;;;;;;;;7.60;82.60;;;;;;5058630;28;19917;-66
2021/10/30 07:20:28;;;;;;;;;;;7.60;82.60;;;;;;5058731;28;19923;-68
2021/10/30 07:22:54;;;;;;;;;;;7.60;82.50;;;;;;5057530;28;20003;-66
2021/10/30 07:25:20;;;;;;;;;;;7.60;82.60;;;;;;5057191;28;19927;-65
2021/10/30 07:27:46;;;;;;;;;;;7.60;82.60;;;;;;5073933;28;19978;-66
2021/10/30 07:30:12;;;;;;;;;;;7.60;82.70;;;;;;5057779;28;19986;-65
2021/10/30 07:32:37;;;;;;;;;;;7.60;82.70;;;;;;5055277;28;19919;-66
2021/10/30 07:35:03;;;;;;;;;;;7.60;82.60;;;;;;5055469;28;19916;-65
2021/10/30 07:37:29;;;;;;;;;;;7.60;82.50;;;;;;5056949;28;19917;-66
2021/10/30 07:39:55;;;;;;;;;;;7.60;82.50;;;;;;5056987;28;19913;-64
2021/10/30 07:42:20;;;;;;;;;;;7.60;82.50;;;;;;5059592;28;19916;-66
2021/10/30 07:44:46;;;;;;;;;;;7.70;82.60;;;;;;5055160;28;19924;-66
2021/10/30 07:47:12;;;;;;;;;;;7.70;82.60;;;;;;5056696;28;20046;-66
2021/10/30 07:49:38;;;;;;;;;;;7.70;82.80;;;;;;5056772;28;19916;-66
2021/10/30 07:52:07;;;;;;;;;;;7.70;83.10;;;;;;5059515;28;20003;-66
2021/10/30 07:54:33;;;;;;;;;;;7.70;83.10;;;;;;5057185;28;19996;-65
2021/10/30 07:56:59;;;;;;;;;;;7.70;83.00;;;;;;5058237;28;19912;-65
2021/10/30 07:59:25;;;;;;;;;;;7.70;82.80;;;;;;5057433;28;20034;-66
2021/10/30 08:01:50;;;;;;;;;;;7.70;82.70;;;;;;5057292;28;19993;-66
2021/10/30 08:04:17;;;;;;;;;;;7.70;82.70;;;;;;5064498;28;19908;-66
2021/10/30 08:06:43;;;;;;;;;;;7.70;82.70;;;;;;5062127;28;20394;-66
2021/10/30 08:09:09;;;;;;;;;;;7.70;82.90;;;;;;5055600;28;19956;-66
2021/10/30 08:11:34;;;;;;;;;;;7.80;83.10;;;;;;5057726;28;19987;-66
2021/10/30 08:14:00;;;;;;;;;;;7.70;83.10;;;;;;5055183;28;19966;-66
2021/10/30 08:16:25;;;;;;;;;;;7.70;82.90;;;;;;5057197;28;20003;-65
2021/10/30 08:18:51;;;;;;;;;;;7.80;83.20;;;;;;5055674;28;19944;-66
2021/10/30 08:21:16;;;;;;;;;;;7.70;83.30;;;;;;5056978;28;19924;-66
2021/10/30 08:23:42;;;;;;;;;;;7.70;82.80;;;;;;5055464;28;19924;-66
2021/10/30 08:26:08;;;;;;;;;;;7.70;82.70;;;;;;5058379;28;19959;-66
2021/10/30 08:28:33;;;;;;;;;;;7.70;82.80;;;;;;5056866;28;20025;-66
2021/10/30 08:30:59;;;;;;;;;;;7.70;82.80;;;;;;5056245;28;20367;-66
2021/10/30 08:33:24;;;;;;;;;;;7.70;83.00;;;;;;5056122;28;19998;-65
2021/10/30 08:35:50;;;;;;;;;;;7.60;82.90;;;;;;5055578;28;19952;-66
2021/10/30 08:38:15;;;;;;;;;;;7.70;83.10;;;;;;5057182;28;20331;-66
2021/10/30 08:40:41;;;;;;;;;;;7.70;83.10;;;;;;5055910;28;19913;-66
2021/10/30 08:43:10;;;;;;;;;;;7.80;83.20;;;;;;5058517;28;19920;-66
2021/10/30 08:45:36;;;;;;;;;;;7.80;83.10;;;;;;5056390;28;19962;-66
2021/10/30 08:48:02;;;;;;;;;;;7.90;83.10;;;;;;5056596;28;20471;-66
2021/10/30 08:50:28;;;;;;;;;;;7.90;83.10;;;;;;5057098;28;19916;-66
2021/10/30 08:52:54;;;;;;;;;;;7.90;83.40;;;;;;5056190;28;20351;-66
2021/10/30 08:55:20;;;;;;;;;;;7.90;83.30;;;;;;5056699;28;19917;-66
2021/10/30 08:57:45;;;;;;;;;;;7.90;83.30;;;;;;5057355;28;20310;-66
2021/10/30 09:00:14;;;;;;;;;;;8.00;83.20;;;;;;5056188;28;20375;-66
2021/10/30 09:02:40;;;;;;;;;;;8.00;83.30;;;;;;5055409;28;19944;-66
2021/10/30 09:05:10;;;;;;;;;;;8.00;83.10;;;;;;5053917;28;19916;-66
2021/10/30 09:07:35;;;;;;;;;;;8.10;83.20;;;;;;5058855;28;20130;-66
2021/10/30 09:10:01;;;;;;;;;;;8.10;83.10;;;;;;5053865;28;19919;-66
2021/10/30 09:12:26;;;;;;;;;;;8.10;82.90;;;;;;5054153;28;19981;-66
2021/10/30 09:14:52;;;;;;;;;;;8.20;82.90;;;;;;5055900;28;19917;-66
2021/10/30 09:17:19;;;;;;;;;;;8.20;82.90;;;;;;5060947;28;19943;-66
2021/10/30 09:19:49;;;;;;;;;;;8.20;82.90;;;;;;5055452;28;19912;-66
2021/10/30 09:22:15;;;;;;;;;;;8.30;82.90;;;;;;5061258;28;19917;-66
2021/10/30 09:24:50;;;;;;;;;;;8.30;82.90;;;;;;5054011;28;19924;-66
2021/10/30 09:27:16;;;;;;;;;;;8.30;82.70;;;;;;5055565;28;20502;-66
2021/10/30 09:29:55;;;;;;;;;;;8.20;82.70;;;;;;5053691;28;19939;-66
2021/10/30 09:32:25;;;;;;;;;;;8.30;82.70;;;;;;5057323;28;19954;-66
2021/10/30 09:34:51;;;;;;;;;;;8.30;82.70;;;;;;5059681;28;19917;-67
2021/10/30 09:37:20;;;;;;;;;;;8.30;82.60;;;;;;5061107;28;19923;-65
2021/10/30 09:39:45;;;;;;;;;;;8.30;82.70;;;;;;5059393;28;20003;-66
2021/10/30 09:42:23;;;;;;;;;;;8.30;82.80;;;;;;5062025;28;22286;-66
2021/10/30 09:45:04;;;;;;;;;;;8.40;82.90;;;;;;5063254;28;19923;-67
2021/10/30 09:47:30;;;;;;;;;;;8.40;82.90;;;;;;5059980;28;20004;-67
2021/10/30 09:49:55;;;;;;;;;;;8.50;82.90;;;;;;5059504;28;20007;-67
2021/10/30 09:52:26;;;;;;;;;;;8.50;83.00;;;;;;5060674;28;19955;-67
2021/10/30 09:54:52;;;;;;;;;;;8.60;82.90;;;;;;5060033;28;19999;-67
2021/10/30 09:57:30;;;;;;;;;;;8.60;82.80;;;;;;5061801;28;20003;-66
2021/10/30 09:59:58;;;;;;;;;;;8.70;82.70;;;;;;5076419;28;19917;-66
2021/10/30 10:02:25;;;;;;;;;;;8.70;82.20;;;;;;5060644;28;19960;-67
2021/10/30 10:04:51;;;;;;;;;;;8.70;82.20;;;;;;5061821;28;19912;-67
2021/10/30 10:07:19;;;;;;;;;;;8.60;82.20;;;;;;5061431;28;19951;-67
2021/10/30 10:09:45;;;;;;;;;;;8.60;82.40;;;;;;5059416;28;19943;-66
2021/10/30 10:12:13;;;;;;;;;;;8.60;82.40;;;;;;5058326;28;19916;-66
2021/10/30 10:14:41;;;;;;;;;;;8.60;82.40;;;;;;5058553;28;19917;-65
2021/10/30 10:17:07;;;;;;;;;;;8.60;82.20;;;;;;5057660;28;19923;-67
2021/10/30 10:19:32;;;;;;;;;;;8.50;82.10;;;;;;5059936;28;19916;-67
2021/10/30 10:21:58;;;;;;;;;;;8.50;82.20;;;;;;5060643;28;20007;-65
2021/10/30 10:24:29;;;;;;;;;;;8.50;82.40;;;;;;5061424;28;20011;-67
2021/10/30 10:26:55;;;;;;;;;;;8.50;82.40;;;;;;5056252;28;19991;-67
2021/10/30 10:29:41;;;;;;;;;;;8.50;82.40;;;;;;5058445;28;20008;-66
2021/10/30 10:32:08;;;;;;;;;;;8.50;82.60;;;;;;5061875;28;20297;-66
2021/10/30 10:34:33;;;;;;;;;;;8.50;82.40;;;;;;5056729;28;20372;-67
2021/10/30 10:37:11;;;;;;;;;;;8.40;82.40;;;;;;5059496;28;19926;-67
2021/10/30 10:39:37;;;;;;;;;;;8.50;82.50;;;;;;5060075;28;19920;-67
2021/10/30 10:42:03;;;;;;;;;;;8.50;82.60;;;;;;5058721;28;19912;-67
2021/10/30 10:44:36;;;;;;;;;;;8.50;82.60;;;;;;5055963;28;20493;-66
2021/10/30 10:47:03;;;;;;;;;;;8.50;82.60;;;;;;5058458;28;19912;-67
2021/10/30 10:52:14;;;;;;;;;;;8.60;82.50;;;;;;5057238;28;20015;-67
2021/10/30 10:54:55;;;;;;;;;;;8.60;82.60;;;;;;5055685;28;19919;-66
2021/10/30 10:57:24;;;;;;;;;;;8.60;82.50;;;;;;5059162;28;19912;-67
2021/10/30 10:59:57;;;;;;;;;;;8.50;82.40;;;;;;5057245;28;20303;-67
2021/10/30 11:02:27;;;;;;;;;;;8.60;82.60;;;;;;5060554;28;19962;-67
2021/10/30 11:05:07;;;;;;;;;;;8.60;82.70;;;;;;5058914;28;19959;-67
2021/10/30 11:08:02;;;;;;;;;;;8.60;82.80;;;;;;5059808;28;19920;-67
2021/10/30 11:10:30;;;;;;;;;;;8.60;82.50;;;;;;5044208;28;19973;-66
2021/10/30 11:13:01;;;;;;;;;;;8.60;82.50;;;;;;5056035;28;19956;-67
2021/10/30 11:15:37;;;;;;;;;;;8.60;82.60;;;;;;5063102;28;19924;-67
2021/10/30 11:20:36;;;;;;;;;;;8.60;82.70;;;;;;5057870;28;19920;-67
2021/10/30 11:23:03;;;;;;;;;;;8.60;82.60;;;;;;5055596;28;19924;-66
2021/10/30 11:25:32;;;;;;;;;;;8.60;82.50;;;;;;5057164;28;20405;-66
2021/10/30 11:27:58;;;;;;;;;;;8.60;82.50;;;;;;5056975;28;20433;-67
2021/10/30 11:30:30;;;;;;;;;;;8.70;82.70;;;;;;5057634;28;19919;-67
2021/10/30 11:32:59;;;;;;;;;;;8.70;82.60;;;;;;5057856;28;20338;-67
2021/10/30 11:35:25;;;;;;;;;;;8.60;82.50;;;;;;5057143;28;20289;-66
2021/10/30 11:37:50;;;;;;;;;;;8.70;82.50;;;;;;5057848;28;20265;-66
2021/10/30 11:40:16;;;;;;;;;;;8.70;82.40;;;;;;5057705;28;20399;-67
2021/10/30 11:42:42;;;;;;;;;;;8.70;82.40;;;;;;5057562;28;19919;-67
2021/10/30 11:45:08;;;;;;;;;;;8.60;82.40;;;;;;5054812;28;19935;-66
2021/10/30 11:47:34;;;;;;;;;;;8.60;82.40;;;;;;5058044;28;20611;-67
2021/10/30 11:49:59;;;;;;;;;;;8.70;82.50;;;;;;5056469;28;19916;-67
2021/10/30 11:52:26;;;;;;;;;;;8.70;82.60;;;;;;5053552;28;19955;-68
2021/10/30 11:54:55;;;;;;;;;;;8.70;82.60;;;;;;5058067;28;20371;-67
2021/10/30 11:57:21;;;;;;;;;;;8.60;82.40;;;;;;5059370;28;20367;-67
2021/10/30 11:59:55;;;;;;;;;;;8.60;82.30;;;;;;5057854;28;20418;-67
2021/10/30 12:02:22;;;;;;;;;;;8.60;82.30;;;;;;5058486;28;19960;-67
2021/10/30 12:04:47;;;;;;;;;;;8.50;82.40;;;;;;5058522;28;19952;-67
2021/10/30 12:07:16;;;;;;;;;;;8.50;82.40;;;;;;5057971;28;19912;-67
2021/10/30 12:09:43;;;;;;;;;;;8.40;82.60;;;;;;5058735;28;19917;-67
2021/10/30 12:12:27;;;;;;;;;;;8.40;82.70;;;;;;5059324;28;19958;-67
2021/10/30 12:14:53;;;;;;;;;;;8.40;82.70;;;;;;5057210;28;19912;-67
2021/10/30 12:17:20;;;;;;;;;;;8.40;82.90;;;;;;5058557;28;19924;-67
2021/10/30 12:19:47;;;;;;;;;;;8.40;83.00;;;;;;5058202;28;19921;-67
2021/10/30 12:22:22;;;;;;;;;;;8.40;82.90;;;;;;5058351;28;20004;-67
2021/10/30 12:24:58;;;;;;;;;;;8.40;83.10;;;;;;5057492;28;20386;-67
2021/10/30 12:27:23;;;;;;;;;;;8.40;83.10;;;;;;5058981;28;19939;-67
2021/10/30 12:29:49;;;;;;;;;;;8.40;83.30;;;;;;5058500;28;19912;-67
2021/10/30 12:32:15;;;;;;;;;;;8.40;83.30;;;;;;5057810;28;20010;-67
2021/10/30 12:34:44;;;;;;;;;;;8.30;83.30;;;;;;5056662;28;20269;-67
2021/10/30 12:37:12;;;;;;;;;;;8.30;83.40;;;;;;5056908;28;19982;-67
2021/10/30 12:39:38;;;;;;;;;;;8.30;83.30;;;;;;5056139;28;19917;-67
2021/10/30 12:42:08;;;;;;;;;;;8.30;83.30;;;;;;5059954;28;19966;-67
2021/10/30 12:44:35;;;;;;;;;;;8.20;83.30;;;;;;5058205;28;19970;-67
2021/10/30 12:47:10;;;;;;;;;;;8.30;83.60;;;;;;5058397;28;19920;-67
2021/10/30 12:49:35;;;;;;;;;;;8.30;83.50;;;;;;5059199;28;19912;-66
2021/10/30 12:52:05;;;;;;;;;;;8.30;83.40;;;;;;5057193;28;20282;-67
2021/10/30 12:54:31;;;;;;;;;;;8.30;83.30;;;;;;5057208;28;20421;-66
2021/10/30 12:56:57;;;;;;;;;;;8.40;83.40;;;;;;5058423;28;19912;-66
2021/10/30 12:59:33;;;;;;;;;;;8.40;83.60;;;;;;5058094;28;19997;-67
2021/10/30 13:01:58;;;;;;;;;;;8.50;83.60;;;;;;5057319;28;19992;-67
2021/10/30 13:04:29;;;;;;;;;;;8.50;83.60;;;;;;5055530;28;20782;-67
2021/10/30 13:07:05;;;;;;;;;;;8.50;83.50;;;;;;5056625;28;19931;-67
2021/10/30 13:09:31;;;;;;;;;;;8.60;83.60;;;;;;5057957;28;19920;-67
2021/10/30 13:11:57;;;;;;;;;;;8.70;83.70;;;;;;5056673;28;19916;-67
2021/10/30 13:14:23;;;;;;;;;;;8.70;83.60;;;;;;5058536;28;19928;-66
2021/10/30 13:16:48;;;;;;;;;;;8.70;83.60;;;;;;5046676;28;20340;-67
2021/10/30 13:19:33;;;;;;;;;;;8.80;83.50;;;;;;5052548;28;20179;-67
2021/10/30 13:21:58;;;;;;;;;;;8.80;83.40;;;;;;5032738;28;19921;-67
2021/10/30 13:24:24;;;;;;;;;;;8.80;83.30;;;;;;5036269;28;20033;-67
2021/10/30 13:28:14;;;;;;;14.60;9.68;;;8.80;82.70;;;;;;5055502;28;20357;-67
2021/10/30 13:30:41;;;;;;;14.60;10.35;;;8.80;83.10;;;;;;5044671;28;20048;-66
2021/10/30 13:33:06;;;;;;;12.00;10.55;;;8.80;83.40;;;;;;5055007;28;64366;-67
2021/10/30 13:35:50;;;;;;;13.50;10.98;;;;;;;9.74;63.03;94805.16;4977281;27;20508;-67
2021/10/30 13:38:16;;;;;;;13.40;11.50;;;;;;;9.79;62.72;94800.16;4994305;28;20814;-67
2021/10/30 13:40:41;;;;;;;13.95;10.43;;;;;;;9.90;62.61;94802.03;4982826;28;20045;-66
2021/10/30 13:45:38;;;;;;;13.13;11.20;;;8.90;83.60;;;;;;5021974;28;20450;-67
2021/10/30 13:48:04;;;;;;;12.45;11.15;;;8.90;84.10;;;;;;5026305;28;20683;-67
2021/10/30 13:50:30;;;;;;;13.10;10.90;;;9.00;84.20;;;;;;5009156;28;20253;-67
2021/10/30 13:52:56;;;;;;;12.02;9.98;;;9.00;84.30;;;;;;5017249;28;20065;-66
2021/10/30 13:55:22;;;;;;;11.77;10.30;;;9.00;84.30;;;;;;5013419;28;20562;-66
2021/10/30 13:57:48;;;;;;;12.98;10.65;;;9.00;84.30;;;;;;5014052;28;20046;-67
2021/10/30 14:00:14;;;;;;;11.55;9.93;;;9.10;84.10;;;;;;5013050;28;20468;-67
2021/10/30 14:02:40;;;;;;;11.23;10.02;;;9.10;84.10;;;;;;5012500;28;20054;-67
2021/10/30 14:05:06;;;;;;;13.18;11.43;;;9.10;84.30;;;;;;5011713;28;20041;-67
2021/10/30 14:07:33;;;;;;;13.98;11.75;;;9.10;84.30;;;;;;5014182;28;20288;-67
2021/10/30 14:09:59;;;;;;;14.23;10.88;;;9.10;84.40;;;;;;5012671;28;20413;-66
2021/10/30 14:12:25;;;;;;;12.60;10.45;;;9.20;84.20;;;;;;5007967;28;20038;-67
2021/10/30 14:14:50;;;;;;;12.88;10.75;;;9.20;85.10;;;;;;5013078;28;20030;-66
2021/10/30 14:17:16;;;;;;;12.35;10.80;;;9.30;84.30;;;;;;5012691;28;20031;-66
2021/10/30 14:19:43;;;;;;;12.25;10.32;;;9.30;84.30;;;;;;5010634;28;20030;-66
2021/10/30 14:22:09;;;;;;;12.73;10.38;;;9.30;84.00;;;;;;5012633;28;20042;-67
2021/10/30 14:24:35;;;;;;;10.80;9.70;;;9.30;83.80;;;;;;5011264;28;20026;-66
2021/10/30 14:27:01;;;;;;;10.27;9.18;;;9.30;83.80;;;;;;5012505;28;20034;-66